• Join FlightAware (Why Join?)
  • Login
  • US Flag 
06:01PM EST


 

Airport Tracker/Info


-or-


 

Live Flight TrackerFlight Track Log ✈ UAL6002 ✈ 12-Apr-2013 ✈ KORD - CYOW

Flight Track Log - Related Links

Times and Time Zones

All times are in EDT time to prevent confusion due to time zone crossing. See the UAL6002 flight status page for this flight to view local times or setup timezone preferences in your user account.

Time Position Orientation Groundspeed Altitude Reporting Facility
EDT Latitude Longitude Course Direction KTS MPH feet Rate Location/Type
03:30PM 42.0500 -87.9167 66° East 232 267 4,000  Level Chicago TRACON
03:31PM 42.1000 -87.8500 45° Northeast 274 315 5,100 1,636 Climbing Chicago TRACON
03:32PM 42.1339 -87.8072 43° Northeast 270 311 6,700 2,299 Climbing Chicago Center
03:33PM 42.1656 -87.7083 67° East 290 334 9,200 2,226 Climbing Chicago Center
03:34PM 42.1861 -87.5972 76° East 305 351 11,300 1,935 Climbing Chicago Center
03:35PM 42.2105 -87.2331 65° Northeast  Level Estimated
03:35PM 42.2075 -87.4756 77° East 328 377 13,200  Level Chicago Center
03:36PM 42.2558 -87.0978 66° East  Level Estimated
03:36PM 42.2292 -87.3461 77° East 354 407 14,300  Level Chicago Center
03:37PM 42.2597 -87.1772 76° East 383 441 15,500 1,113 Climbing Chicago Center
03:38PM 42.2806 -87.0264 79° East 405 466 16,600 1,024 Climbing Chicago Center
03:39PM 42.2864 -86.8697 87° East 417 480 17,600 1,122 Climbing Chicago Center
03:40PM 42.2922 -86.7103 87° East 425 489 18,900 1,548 Climbing Chicago Center
03:41PM 42.3008 -86.5350 86° East 430 495 20,800 1,887 Climbing Chicago Center
03:42PM 42.3061 -86.3800 87° East 419 482 22,800 1,839 Climbing Chicago Center
03:43PM 42.3111 -86.2303 87° East 406 467 24,600 1,548 Climbing Chicago Center
03:44PM 42.3150 -86.0803 88° East 404 465 26,000 1,161 Climbing Chicago Center
03:45PM 42.3133 -85.9281 91° East 407 468 27,000 1,210 Climbing Chicago Center
03:46PM 42.3111 -85.7447 91° East 411 473 28,500 1,220 Climbing Chicago Center
03:47PM 42.3089 -85.5914 91° East 411 473 29,500 1,024 Climbing Chicago Center
03:48PM 42.3069 -85.4336 91° East 419 482 30,600 1,113 Climbing Chicago Center
03:49PM 42.3042 -85.2753 91° East 422 486 31,800 1,171 Climbing Chicago Center
03:50PM 42.3061 -85.2219 87° East 421 484 32,200 1,275 Climbing Cleveland Center
03:51PM 42.3019 -85.0617 92° East 421 484 33,500 1,200 Climbing Cleveland Center
03:52PM 42.3000 -84.9014 91° East 421 484 34,600 750 Climbing Cleveland Center
03:53PM 42.2956 -84.7353 92° East 426 490 35,000 200 Climbing Cleveland Center
03:54PM 42.2869 -84.5636 94° East 447 514 35,000  Level Cleveland Center
03:55PM 42.2953 -84.3814 86° East 468 539 35,000  Level Cleveland Center
03:56PM 42.3222 -84.1892 79° East 492 566 35,000  Level Cleveland Center
03:57PM 42.3508 -84.0056 78° East 501 577 35,000  Level Cleveland Center
03:58PM 42.3772 -83.8158 79° East 507 583 35,000  Level Cleveland Center
03:59PM 42.4011 -83.6314 80° East 501 577 35,000  Level Cleveland Center
04:00PM 42.4472 -83.4533 71° East 501 577 35,000  Level Cleveland Center
04:01PM 42.4933 -83.2725 71° East 506 582 35,000  Level Cleveland Center
04:02PM 42.5411 -83.0914 70° East 506 582 35,000  Level Cleveland Center
04:03PM 42.5908 -82.9100 70° East 506 582 35,000  Level Cleveland Center
04:04PM 42.6339 -82.7336 72° East 499 574 35,000  Level Cleveland Center
04:05PM 42.6808 -82.5544 70° East 499 574 35,000  Level Cleveland Center
04:06PM 42.7275 -82.3750 70° East 504 580 35,000  Level Cleveland Center
04:07PM 42.7761 -82.1983 69° East 499 574 35,000  Level Cleveland Center
04:08PM 42.8200 -82.0211 71° East 499 574 35,000  Level Cleveland Center
04:09PM 42.8639 -81.8408 72° East 499 574 35,000  Level Cleveland Center
04:09PM 42.8833 -81.7500 74° East 510 587 35,000  Level Toronto Center
04:10PM 42.9167 -81.5667 76° East 510 587 35,000  Level Toronto Center
04:11PM 42.9667 -81.3833 70° East 510 587 35,000  Level Toronto Center
04:12PM 43.0000 -81.2000 76° East 510 587 35,000  Level Toronto Center
04:13PM 43.0667 -81.0333 61° Northeast 500 575 35,000 -400 Level Toronto Center
04:14PM 43.1333 -80.8667 61° Northeast 510 587 34,200 -950 Descending Toronto Center
04:15PM 43.2167 -80.6833 58° Northeast 510 587 33,100 -600 Descending Toronto Center
04:16PM 43.2833 -80.5333 59° Northeast 520 598 33,000 -50 Descending Toronto Center
04:17PM 43.3500 -80.3500 63° Northeast 520 598 33,000  Level Toronto Center
04:18PM 43.4167 -80.1833 61° Northeast 520 598 33,000  Level Toronto Center
04:19PM 43.4833 -80.0000 63° Northeast 520 598 33,000  Level Toronto Center
04:20PM 43.5667 -79.8167 58° Northeast 520 598 33,000  Level Toronto Center
04:21PM 43.6333 -79.6500 61° Northeast 510 587 33,000  Level Toronto Center
04:22PM 43.6833 -79.4667 69° East 510 587 33,000  Level Toronto Center
04:23PM 43.7500 -79.2833 63° Northeast 510 587 33,000  Level Toronto Center
04:24PM 43.8000 -79.1167 67° East 510 587 33,000  Level Toronto Center
04:25PM 43.8500 -78.9167 71° East 510 587 33,000  Level Toronto Center
04:26PM 43.9000 -78.7500 67° East 510 587 33,000  Level Toronto Center
04:27PM 43.9500 -78.5667 69° East 510 587 33,000  Level Toronto Center
04:28PM 44.0000 -78.3833 69° East 510 587 33,000  Level Toronto Center
04:29PM 44.0500 -78.2167 67° East 520 598 33,000  Level Toronto Center
04:30PM 44.1333 -78.0333 58° Northeast 520 598 33,000  Level Toronto Center
04:31PM 44.2000 -77.8667 61° Northeast 520 598 33,000  Level Toronto Center
04:32PM 44.3000 -77.6833 53° Northeast 520 598 33,000 -400 Level Toronto Center
04:33PM 44.3667 -77.5167 61° Northeast 520 598 32,200 -1,650 Descending Toronto Center
04:34PM 44.4333 -77.3500 61° Northeast 520 598 29,700 -2,716 Descending Toronto Center
04:35PM 44.5000 -77.2833 35° Northeast 510 587 27,900 -2,842 Descending Montreal Center
04:36PM 44.5667 -77.1167 61° Northeast 500 575 25,200 -2,800 Descending Montreal Center
04:37PM 44.6333 -76.9833 55° Northeast 480 552 22,300 -3,000 Descending Montreal Center
04:38PM 44.7000 -76.8167 61° Northeast 450 518 19,200 -3,050 Descending Montreal Center
04:39PM 44.7667 -76.6833 55° Northeast 430 495 16,200 -3,035 Descending Montreal Center
04:39PM 44.8000 -76.6000 61° Northeast 430 495 14,900 -2,965 Descending Toronto Center
04:40PM 44.8667 -76.4833 51° Northeast 410 472 12,000 -2,274 Descending Toronto Center
04:41PM 44.9000 -76.4333 47° Northeast 390 449 11,300 -1,516 Descending Montreal Center
04:42PM 44.9667 -76.3167 51° Northeast 340 391 9,600 -1,500 Descending Montreal Center
04:43PM 45.0167 -76.2333 50° Northeast 320 368 8,300 -800 Descending Montreal Center
04:44PM 45.0667 -76.1333 55° Northeast 300 345 8,000 -750 Descending Montreal Center
04:45PM 45.1167 -76.0333 55° Northeast 290 334 6,800 -1,300 Descending Montreal Center
04:46PM 45.1667 -75.9667 43° Northeast 280 322 5,400 -1,400 Descending Montreal Center
04:47PM 45.2000 -75.8667 65° Northeast 260 299 4,000 -1,350 Descending Montreal Center
04:48PM 45.2333 -75.8000 55° Northeast 230 265 2,700 -1,000 Descending Montreal Center
04:49PM 45.2500 -75.7500 65° Northeast 150 173 2,000 -650 Descending Montreal Center
04:50PM 45.2667 -75.7333 35° Northeast 110 127 1,400 -650 Descending Montreal Center
04:51PM 45.2833 -75.6833 65° Northeast 110 127 700 -500 Descending Montreal Center
04:52PM 45.3000 -75.6667 35° Northeast 110 127 400 -300 Descending Montreal Center